Aviation Digital Data Service (ADDS)

Output produced by METARs form (2035 UTC 25 October 2014)
found at http://aviationweather.gov/adds/metars/
 
KSYR 251740Z 2518/2618 25012G22KT P6SM SCT045 BKN100 
     FM252000 29010KT P6SM -SHRA OVC050 
     TEMPO 2520/2524 OVC025 
     FM260000 28011KT P6SM OVC025 
     TEMPO 2608/2612 3SM -SHRA OVC015 
     FM261600 29018G28KT P6SM OVC035